Time;durP1;ratioP1;P1;durP2;ratioP2;P2;SDS_P1;SDS_P2;PMS_P1;PMS_P2;Temp;Humidity;BMP_temperature;BMP_pressure;BME280_temperature;BME280_humidity;BME280_pressure;Samples;Min_cycle;Max_cycle;Signal;HPM_P1;HPM_P2
2022/02/05 00:00:26;;;;;;;4.63;1.90;;;22.10;65.30;;;;;;4157757;28;20076;-67
2022/02/05 00:05:36;;;;;;;7.25;1.73;;;22.10;65.40;;;;;;4156344;28;20029;-67
2022/02/05 00:09:09;;;;;;;5.97;1.70;;;22.10;65.40;;;;;;4155152;28;20030;-67
2022/02/05 00:40:07;;;;;;;3.67;1.30;;;22.20;64.00;;;;;;4143740;28;20389;-68
2022/02/05 00:42:39;;;;;;;3.97;1.33;;;22.20;63.90;;;;;;4152711;28;20459;-67
2022/02/05 00:45:06;;;;;;;4.28;1.25;;;22.20;63.80;;;;;;4150608;28;20245;-67
2022/02/05 00:47:30;;;;;;;3.38;1.20;;;22.20;63.70;;;;;;4151509;28;20156;-67
2022/02/05 00:49:58;;;;;;;2.08;1.00;;;22.20;63.70;;;;;;4146622;28;20091;-67
2022/02/05 00:52:21;;;;;;;3.08;0.90;;;22.20;63.60;;;;;;4159015;28;20061;-66
2022/02/05 00:54:48;;;;;;;4.78;1.17;;;22.20;63.50;;;;;;4153810;28;20034;-67
2022/02/05 00:59:51;;;;;;;4.55;1.42;;;22.30;63.40;;;;;;4158343;28;20038;-67
2022/02/05 01:02:13;;;;;;;3.25;0.98;;;22.30;63.30;;;;;;4158509;28;20064;-67
2022/02/05 01:04:35;;;;;;;5.43;1.20;;;22.30;63.30;;;;;;4154906;28;20537;-68
2022/02/05 01:06:58;;;;;;;4.43;1.35;;;22.30;63.20;;;;;;4158995;28;20040;-66
2022/02/05 01:09:24;;;;;;;2.85;1.02;;;22.30;63.00;;;;;;4150933;28;20034;-67
2022/02/05 01:11:47;;;;;;;5.78;1.63;;;22.30;62.90;;;;;;4155535;28;20114;-68
2022/02/05 01:14:13;;;;;;;5.65;1.20;;;22.30;62.90;;;;;;4141590;28;20109;-67
2022/02/05 01:19:00;;;;;;;5.07;1.40;;;22.40;62.60;;;;;;4157087;28;20065;-66
2022/02/05 01:21:39;;;;;;;5.50;1.13;;;22.40;62.60;;;;;;4153213;28;20029;-68
2022/02/05 01:24:02;;;;;;;3.88;0.98;;;22.40;62.40;;;;;;4151512;28;20041;-67
2022/02/05 01:26:31;;;;;;;4.32;1.23;;;22.40;62.20;;;;;;4146233;28;20480;-67
2022/02/05 01:29:00;;;;;;;4.00;1.13;;;22.50;62.10;;;;;;4153452;28;20151;-68
2022/02/05 01:31:27;;;;;;;4.50;1.25;;;22.50;62.00;;;;;;4155051;28;20461;-67
2022/02/05 01:34:07;;;;;;;3.90;1.30;;;22.50;61.90;;;;;;4155861;28;20120;-68
2022/02/05 01:50:16;;;;;;;2.95;1.45;;;22.60;61.40;;;;;;4153841;28;20111;-66
2022/02/05 01:53:07;;;;;;;4.60;1.05;;;22.60;61.10;;;;;;4159052;28;20115;-65
2022/02/05 01:55:34;;;;;;;2.83;0.93;;;22.70;60.90;;;;;;4144705;28;20068;-66
2022/02/05 01:58:18;;;;;;;3.55;1.15;;;22.70;60.70;;;;;;4150411;28;20053;-67
2022/02/05 02:11:36;;;;;;;3.47;1.00;;;22.80;59.90;;;;;;4149996;28;20057;-66
2022/02/05 02:19:20;;;;;;;3.60;1.00;;;22.80;59.60;;;;;;4151730;28;20038;-65
2022/02/05 02:21:53;;;;;;;3.90;1.25;;;22.80;59.20;;;;;;4158265;28;20025;-66
2022/02/05 02:24:26;;;;;;;3.35;1.08;;;22.90;59.20;;;;;;4157485;28;20406;-66
2022/02/05 02:29:17;;;;;;;1.70;0.50;;;22.90;59.10;;;;;;4157468;28;20045;-66
2022/02/05 02:31:43;;;;;;;3.72;0.95;;;22.90;59.10;;;;;;4148953;28;20046;-65
2022/02/05 02:34:10;;;;;;;3.53;0.85;;;22.90;59.10;;;;;;4148730;28;20447;-66
2022/02/05 02:36:39;;;;;;;2.42;0.88;;;22.90;59.00;;;;;;4153671;28;20203;-65
2022/02/05 02:39:11;;;;;;;3.00;1.05;;;23.00;59.00;;;;;;4149558;28;20433;-66
2022/02/05 02:41:42;;;;;;;2.25;0.95;;;23.00;58.90;;;;;;4145966;28;20046;-66
2022/02/05 02:44:05;;;;;;;3.38;0.90;;;23.00;58.80;;;;;;4157418;28;20096;-66
2022/02/05 02:46:27;;;;;;;2.65;0.82;;;23.00;58.80;;;;;;4152479;28;20039;-68
2022/02/05 02:48:50;;;;;;;3.65;1.02;;;23.00;58.60;;;;;;4149278;28;20096;-66
2022/02/05 02:58:49;;;;;;;2.33;1.00;;;23.20;59.10;;;;;;4146730;28;20145;-66
2022/02/05 03:01:17;;;;;;;2.35;0.95;;;23.20;59.10;;;;;;4158884;28;20036;-68
2022/02/05 03:03:40;;;;;;;4.18;1.08;;;23.20;59.00;;;;;;4152486;28;20037;-66
2022/02/05 03:06:02;;;;;;;3.20;1.00;;;23.20;59.00;;;;;;4151497;28;20045;-67
2022/02/05 03:08:24;;;;;;;2.95;1.08;;;23.30;58.90;;;;;;4155347;28;20197;-65
2022/02/05 03:10:47;;;;;;;2.15;1.05;;;23.30;58.90;;;;;;4151269;28;20508;-65
2022/02/05 03:13:10;;;;;;;2.45;1.00;;;23.30;58.80;;;;;;4157223;28;20171;-65
2022/02/05 03:15:37;;;;;;;2.75;0.90;;;23.30;58.60;;;;;;4159804;28;20026;-65
2022/02/05 03:18:05;;;;;;;2.72;1.02;;;23.30;58.50;;;;;;4152774;28;20046;-66
2022/02/05 03:20:28;;;;;;;3.92;1.13;;;23.30;58.20;;;;;;4155597;28;20182;-67
2022/02/05 03:22:50;;;;;;;4.50;0.82;;;23.40;58.30;;;;;;4158985;28;20046;-67
2022/02/05 03:25:12;;;;;;;5.32;1.20;;;23.40;58.20;;;;;;4153074;28;20037;-72
2022/02/05 03:27:35;;;;;;;2.33;0.85;;;23.40;58.20;;;;;;4158996;28;20081;-75
2022/02/05 03:29:57;;;;;;;3.53;1.05;;;23.40;58.10;;;;;;4157378;28;20119;-82
2022/02/05 03:32:22;;;;;;;2.88;1.00;;;23.50;58.00;;;;;;4150382;28;20045;-78
2022/02/05 03:34:45;;;;;;;1.65;0.93;;;23.50;58.60;;;;;;4149585;28;20040;-78
2022/02/05 03:37:07;;;;;;;2.15;1.10;;;23.50;58.10;;;;;;4155718;28;20033;-77
2022/02/05 03:39:30;;;;;;;2.80;1.20;;;23.50;58.10;;;;;;4147905;28;20104;-78
2022/02/05 03:41:52;;;;;;;3.08;0.90;;;23.50;58.00;;;;;;4150409;28;20764;-77
2022/02/05 03:44:15;;;;;;;4.05;1.20;;;23.60;58.00;;;;;;4156057;28;20042;-74
2022/02/05 03:46:37;;;;;;;3.85;1.02;;;23.60;58.00;;;;;;4154331;28;20485;-75
2022/02/05 03:49:00;;;;;;;5.43;1.50;;;23.60;58.00;;;;;;4153945;28;20474;-77
2022/02/05 03:51:22;;;;;;;3.90;1.10;;;23.60;58.10;;;;;;4155022;28;20048;-76
2022/02/05 03:53:45;;;;;;;2.92;1.10;;;23.70;58.10;;;;;;4145378;28;20048;-78
2022/02/05 03:56:08;;;;;;;3.90;1.42;;;23.70;58.70;;;;;;4153496;28;20041;-78
2022/02/05 03:58:30;;;;;;;3.00;1.00;;;23.70;58.00;;;;;;4156113;28;20052;-76
2022/02/05 04:00:53;;;;;;;2.95;1.10;;;23.70;57.80;;;;;;4146873;28;20038;-75
2022/02/05 04:03:15;;;;;;;2.75;1.10;;;23.80;57.70;;;;;;4150127;28;20026;-79
2022/02/05 04:05:37;;;;;;;3.53;0.80;;;23.80;57.40;;;;;;4148923;28;20038;-77
2022/02/05 04:08:03;;;;;;;3.58;1.25;;;23.80;57.20;;;;;;4152095;28;20580;-78
2022/02/05 04:10:29;;;;;;;3.20;1.02;;;23.80;57.00;;;;;;4158552;28;20056;-74
2022/02/05 04:18:14;;;;;;;2.97;0.90;;;23.90;57.00;;;;;;4147930;28;20068;-76
2022/02/05 04:20:39;;;;;;;3.00;1.05;;;23.90;57.20;;;;;;4152928;28;20515;-74
2022/02/05 04:23:02;;;;;;;2.45;0.93;;;24.00;57.40;;;;;;4151849;28;20104;-76
2022/02/05 04:25:24;;;;;;;2.67;1.02;;;24.00;57.60;;;;;;4155774;28;20041;-73
2022/02/05 04:27:47;;;;;;;3.65;1.17;;;24.00;57.80;;;;;;4155199;28;20753;-74
2022/02/05 04:30:10;;;;;;;2.85;0.93;;;24.00;57.90;;;;;;4153875;28;20111;-74
2022/02/05 04:32:32;;;;;;;3.90;1.20;;;24.00;57.90;;;;;;4141043;28;20567;-73
2022/02/05 04:34:55;;;;;;;4.32;1.20;;;24.00;58.00;;;;;;4153766;28;20041;-75
2022/02/05 04:37:20;;;;;;;4.05;1.25;;;24.00;58.40;;;;;;4152046;28;20033;-65
2022/02/05 04:39:50;;;;;;;4.65;1.45;;;24.00;60.10;;;;;;4151952;28;20521;-66
2022/02/05 04:42:15;;;;;;;7.32;1.77;;;24.00;60.40;;;;;;4157090;28;20053;-65
2022/02/05 05:05:00;;;;;;;9.52;5.70;;;24.20;63.40;;;;;;4150046;28;20041;-66
2022/02/05 05:19:57;;;;;;;9.32;3.20;;;24.50;65.10;;;;;;4143839;28;20046;-66
2022/02/05 05:22:19;;;;;;;7.90;3.30;;;24.50;64.60;;;;;;4153893;28;20092;-64
2022/02/05 05:24:42;;;;;;;4.93;2.83;;;24.60;64.40;;;;;;4156131;28;20041;-64
2022/02/05 05:27:05;;;;;;;10.30;3.43;;;24.60;64.10;;;;;;4154484;28;20064;-65
2022/02/05 05:29:27;;;;;;;4.63;2.35;;;24.60;64.10;;;;;;4153520;28;20036;-66
2022/02/05 05:31:50;;;;;;;9.30;2.63;;;24.60;63.80;;;;;;4148069;28;20045;-66
2022/02/05 05:34:13;;;;;;;10.43;2.70;;;24.60;63.40;;;;;;4154183;28;20379;-65
2022/02/05 05:36:36;;;;;;;10.88;3.15;;;24.60;63.20;;;;;;4157316;28;20566;-66
2022/02/05 05:39:02;;;;;;;8.20;3.13;;;24.60;63.00;;;;;;4147718;28;20432;-68
2022/02/05 05:41:24;;;;;;;7.85;3.60;;;24.70;62.80;;;;;;4154909;28;20368;-66
2022/02/05 05:44:01;;;;;;;9.15;5.20;;;24.60;62.60;;;;;;4148082;28;20038;-66
2022/02/05 05:46:32;;;;;;;5.85;3.30;;;24.60;62.40;;;;;;4151014;28;20080;-66
2022/02/05 05:48:58;;;;;;;6.88;3.53;;;24.60;62.20;;;;;;4150523;28;20045;-67
2022/02/05 05:51:21;;;;;;;5.78;3.47;;;24.60;62.10;;;;;;4144368;28;20049;-66
2022/02/05 05:53:43;;;;;;;5.82;3.00;;;24.60;62.00;;;;;;4156032;28;20048;-65
2022/02/05 05:56:06;;;;;;;4.55;2.92;;;24.60;61.90;;;;;;4157838;28;20181;-66
2022/02/05 05:58:29;;;;;;;4.90;3.03;;;24.60;61.80;;;;;;4155364;28;20045;-67
2022/02/05 06:00:51;;;;;;;4.37;2.80;;;24.60;61.80;;;;;;4152103;28;20384;-66
2022/02/05 06:03:14;;;;;;;5.40;2.83;;;24.60;61.80;;;;;;4147404;28;20642;-67
2022/02/05 06:05:37;;;;;;;6.70;2.80;;;24.60;61.60;;;;;;4151956;28;20477;-66
2022/02/05 06:07:59;;;;;;;3.22;2.35;;;24.60;61.50;;;;;;4149111;28;20022;-68
2022/02/05 06:10:22;;;;;;;3.67;2.70;;;24.60;61.50;;;;;;4153428;28;20712;-67
2022/02/05 06:12:45;;;;;;;4.80;2.30;;;24.60;61.50;;;;;;4155349;28;20116;-67
2022/02/05 06:15:09;;;;;;;3.70;2.10;;;24.60;61.40;;;;;;4153258;28;20030;-67
2022/02/05 06:17:31;;;;;;;3.75;1.80;;;24.60;61.30;;;;;;4149280;28;20037;-66
2022/02/05 06:19:55;;;;;;;3.53;1.90;;;24.60;61.10;;;;;;4152714;28;20048;-67
2022/02/05 06:22:17;;;;;;;2.38;1.65;;;24.60;61.20;;;;;;4147331;28;20400;-67
2022/02/05 06:24:40;;;;;;;5.13;1.60;;;24.60;61.10;;;;;;4142450;28;20179;-67
2022/02/05 06:27:03;;;;;;;3.70;1.60;;;24.60;61.00;;;;;;4149162;28;20068;-66
2022/02/05 06:29:25;;;;;;;2.78;1.70;;;24.60;61.00;;;;;;4154819;28;20627;-67
2022/02/05 06:31:48;;;;;;;3.40;1.80;;;24.60;60.90;;;;;;4151241;28;20041;-67
2022/02/05 06:34:10;;;;;;;3.75;1.77;;;24.60;60.70;;;;;;4154894;28;20049;-67
2022/02/05 06:36:33;;;;;;;3.55;1.65;;;24.60;60.60;;;;;;4156503;28;20055;-66
2022/02/05 06:38:58;;;;;;;3.05;1.55;;;24.60;60.60;;;;;;4156543;28;20037;-66
2022/02/05 06:41:21;;;;;;;4.28;1.95;;;24.60;60.50;;;;;;4153195;28;20506;-66
2022/02/05 06:43:43;;;;;;;3.40;1.90;;;24.60;60.50;;;;;;4152287;28;20046;-65
2022/02/05 06:46:05;;;;;;;4.40;2.20;;;24.60;60.40;;;;;;4142765;28;20550;-66
2022/02/05 06:48:28;;;;;;;2.70;1.80;;;24.60;60.30;;;;;;4152289;28;20041;-67
2022/02/05 06:50:50;;;;;;;4.03;1.88;;;24.60;60.30;;;;;;4151884;28;20041;-66
2022/02/05 06:53:13;;;;;;;3.22;1.75;;;24.60;60.10;;;;;;4154457;28;20049;-67
2022/02/05 06:55:35;;;;;;;3.28;1.55;;;24.60;60.10;;;;;;4148023;28;20041;-68
2022/02/05 06:57:58;;;;;;;4.25;1.73;;;24.60;60.00;;;;;;4144312;28;20072;-67
2022/02/05 07:00:21;;;;;;;2.83;1.45;;;24.60;60.00;;;;;;4153239;28;20104;-65
2022/02/05 07:02:47;;;;;;;2.15;1.20;;;24.60;59.90;;;;;;4155905;28;20036;-66
2022/02/05 07:05:10;;;;;;;1.85;1.42;;;24.60;59.80;;;;;;4156598;28;20048;-65
2022/02/05 07:07:32;;;;;;;2.42;1.50;;;24.60;59.90;;;;;;4153114;28;20083;-66
2022/02/05 07:09:55;;;;;;;2.75;1.40;;;24.50;59.90;;;;;;4154299;28;20480;-67
2022/02/05 07:12:17;;;;;;;2.60;1.33;;;24.60;59.70;;;;;;4151075;28;20076;-67
2022/02/05 07:15:03;;;;;;;4.15;1.45;;;24.60;59.60;;;;;;4156527;28;20045;-67
2022/02/05 07:17:34;;;;;;;3.40;1.63;;;24.50;59.50;;;;;;4159364;28;20073;-66
2022/02/05 07:22:24;;;;;;;4.10;1.20;;;24.50;59.40;;;;;;4149385;28;20454;-66
2022/02/05 07:30:24;;;;;;;2.08;1.05;;;24.50;59.40;;;;;;4158397;28;20061;-66
2022/02/05 07:32:47;;;;;;;2.97;1.10;;;24.50;59.40;;;;;;4157505;28;20380;-67
2022/02/05 07:35:09;;;;;;;2.67;1.23;;;24.50;59.40;;;;;;4159173;28;20092;-65
2022/02/05 07:37:32;;;;;;;1.83;1.00;;;24.50;59.50;;;;;;4144513;28;20034;-67
2022/02/05 07:39:54;;;;;;;3.42;1.17;;;24.50;59.50;;;;;;4147055;28;20041;-65
2022/02/05 07:42:18;;;;;;;3.08;0.90;;;24.50;59.50;;;;;;4149952;28;20046;-67
2022/02/05 07:44:41;;;;;;;2.13;1.10;;;24.50;59.50;;;;;;4153889;28;20058;-66
2022/02/05 07:47:04;;;;;;;3.50;1.20;;;24.50;59.40;;;;;;4152898;28;20037;-67
2022/02/05 07:49:29;;;;;;;2.65;0.85;;;24.50;59.40;;;;;;4157597;28;20108;-67
2022/02/05 07:51:52;;;;;;;1.83;0.90;;;24.40;59.50;;;;;;4156171;28;20045;-68
2022/02/05 07:54:14;;;;;;;2.55;0.95;;;24.50;59.40;;;;;;4155113;28;20907;-67
2022/02/05 07:56:38;;;;;;;5.75;1.25;;;24.50;59.30;;;;;;4154738;28;20053;-66
2022/02/05 07:59:00;;;;;;;4.45;1.40;;;24.50;59.30;;;;;;4155509;28;20121;-65
2022/02/05 08:01:22;;;;;;;3.33;1.55;;;24.50;59.30;;;;;;4160022;28;20113;-73
2022/02/05 08:03:45;;;;;;;3.60;0.90;;;24.40;59.20;;;;;;4157488;28;20065;-76
2022/02/05 08:06:15;;;;;;;2.63;0.85;;;24.40;59.20;;;;;;4156543;28;20072;-77
2022/02/05 08:08:37;;;;;;;4.22;1.40;;;24.40;59.30;;;;;;4160925;28;20753;-77
2022/02/05 08:11:07;;;;;;;1.92;0.95;;;24.40;59.30;;;;;;4153618;28;20463;-76
2022/02/05 08:13:32;;;;;;;4.15;0.93;;;24.40;59.20;;;;;;4158196;28;20041;-74
2022/02/05 08:15:58;;;;;;;1.98;0.75;;;24.40;59.30;;;;;;4158406;28;20501;-76
2022/02/05 08:18:20;;;;;;;2.45;0.80;;;24.40;59.30;;;;;;4149055;28;20409;-76
2022/02/05 08:20:43;;;;;;;3.15;0.90;;;24.40;59.20;;;;;;4159013;28;20130;-76
2022/02/05 08:23:05;;;;;;;2.45;0.75;;;24.40;59.30;;;;;;4154902;28;20046;-73
2022/02/05 08:25:28;;;;;;;2.50;0.80;;;24.40;59.30;;;;;;4160789;28;20073;-74
2022/02/05 08:27:50;;;;;;;3.28;0.90;;;24.40;59.40;;;;;;4157508;28;20033;-76
2022/02/05 08:30:14;;;;;;;2.33;0.90;;;24.40;59.40;;;;;;4149605;28;20042;-75
2022/02/05 08:32:37;;;;;;;2.67;0.95;;;24.40;59.40;;;;;;4158213;28;20055;-74
2022/02/05 08:35:01;;;;;;;2.05;0.82;;;24.40;59.40;;;;;;4148306;28;20060;-76
2022/02/05 08:37:23;;;;;;;2.33;1.35;;;24.40;59.40;;;;;;4154768;28;20042;-75
2022/02/05 08:39:46;;;;;;;2.33;0.82;;;24.40;59.40;;;;;;4163690;28;20548;-78
2022/02/05 08:42:09;;;;;;;2.72;1.30;;;24.40;59.40;;;;;;4156144;28;20428;-76
2022/02/05 08:44:31;;;;;;;2.15;0.73;;;24.40;59.40;;;;;;4156620;28;20433;-80
2022/02/05 08:46:54;;;;;;;2.28;0.77;;;24.40;59.40;;;;;;4155127;28;20600;-75
2022/02/05 08:49:16;;;;;;;2.85;0.75;;;24.30;59.40;;;;;;4157562;28;20176;-74
2022/02/05 08:51:39;;;;;;;4.35;1.20;;;24.30;59.40;;;;;;4158632;28;20057;-74
2022/02/05 08:54:01;;;;;;;1.33;0.82;;;24.30;59.40;;;;;;4156921;28;20045;-76
2022/02/05 08:56:24;;;;;;;1.67;0.50;;;24.30;59.40;;;;;;4156727;28;20044;-74
2022/02/05 08:58:46;;;;;;;2.90;1.17;;;24.30;59.40;;;;;;4158178;28;20041;-73
2022/02/05 09:01:20;;;;;;;1.65;0.73;;;24.30;59.50;;;;;;4155304;28;20037;-74
2022/02/05 09:04:12;;;;;;;1.27;0.60;;;24.30;59.50;;;;;;4154143;28;20038;-75
2022/02/05 09:06:39;;;;;;;2.80;0.77;;;24.30;59.50;;;;;;4157915;28;20195;-74
2022/02/05 09:09:13;;;;;;;2.55;0.98;;;24.30;59.50;;;;;;4147324;28;20432;-73
2022/02/05 09:11:45;;;;;;;1.05;0.65;;;24.30;59.50;;;;;;4161409;28;20060;-74
2022/02/05 09:14:15;;;;;;;2.47;1.13;;;24.30;59.50;;;;;;4158620;28;20033;-74
2022/02/05 09:16:39;;;;;;;1.27;0.60;;;24.20;59.50;;;;;;4156720;28;20041;-73
2022/02/05 09:19:01;;;;;;;1.35;0.70;;;24.30;59.50;;;;;;4150841;28;20044;-73
2022/02/05 09:21:25;;;;;;;1.48;0.80;;;24.20;59.60;;;;;;4155447;28;20450;-75
2022/02/05 09:23:53;;;;;;;3.30;1.02;;;24.20;59.50;;;;;;4154274;28;20037;-75
2022/02/05 09:26:16;;;;;;;2.35;0.90;;;24.20;59.50;;;;;;4145349;28;20042;-76
2022/02/05 09:28:40;;;;;;;2.20;0.90;;;24.20;59.50;;;;;;4151372;28;20038;-74
2022/02/05 09:33:25;;;;;;;1.13;0.60;;;24.20;59.50;;;;;;4155432;28;20490;-75
2022/02/05 09:35:47;;;;;;;2.58;0.80;;;24.20;59.50;;;;;;4152613;28;20120;-76
2022/02/05 09:38:10;;;;;;;1.73;0.60;;;24.20;59.60;;;;;;4152160;28;20037;-74
2022/02/05 09:40:33;;;;;;;2.10;0.68;;;24.20;59.60;;;;;;4152710;28;20131;-74
2022/02/05 09:42:55;;;;;;;2.50;0.95;;;24.20;59.60;;;;;;4148973;28;20034;-75
2022/02/05 09:45:18;;;;;;;2.53;1.08;;;24.20;59.60;;;;;;4148486;28;20034;-73
2022/02/05 09:47:42;;;;;;;3.08;0.98;;;24.20;59.60;;;;;;4147694;28;20040;-74
2022/02/05 09:50:06;;;;;;;1.20;0.60;;;24.20;59.60;;;;;;4131960;28;20049;-74
2022/02/05 09:52:29;;;;;;;1.92;0.75;;;24.20;59.60;;;;;;4137397;28;20056;-74
2022/02/05 09:54:52;;;;;;;2.20;0.70;;;24.20;59.70;;;;;;4152450;28;20119;-73
2022/02/05 09:57:14;;;;;;;2.83;0.85;;;24.20;59.60;;;;;;4153111;28;20041;-74
2022/02/05 09:59:46;;;;;;;1.65;0.88;;;24.10;59.60;;;;;;4153565;28;20049;-76
2022/02/05 10:02:41;;;;;;;1.67;0.73;;;24.10;59.50;;;;;;4153179;28;20421;-75
2022/02/05 10:05:09;;;;;;;2.83;0.73;;;24.10;59.70;;;;;;4119956;28;20045;-77
2022/02/05 10:07:32;;;;;;;1.77;0.50;;;24.10;59.60;;;;;;4151600;28;20115;-76
2022/02/05 10:10:04;;;;;;;1.73;0.80;;;24.10;59.70;;;;;;4151227;28;20069;-74
2022/02/05 10:12:27;;;;;;;1.80;0.80;;;24.10;59.70;;;;;;4150982;28;20053;-75
2022/02/05 10:15:01;;;;;;;3.45;0.85;;;24.10;59.70;;;;;;4149819;28;20745;-75
2022/02/05 10:17:43;;;;;;;1.50;0.63;;;24.10;59.70;;;;;;4151545;28;20045;-75
2022/02/05 10:20:07;;;;;;;2.25;0.85;;;24.10;59.70;;;;;;4152306;28;20660;-73
2022/02/05 10:22:37;;;;;;;1.88;0.82;;;24.10;59.70;;;;;;4147199;28;20042;-73
2022/02/05 10:25:06;;;;;;;3.30;0.70;;;24.10;59.80;;;;;;4151156;28;20175;-74
2022/02/05 10:27:39;;;;;;;4.25;1.10;;;24.10;59.80;;;;;;4150664;28;20104;-78
2022/02/05 10:30:24;;;;;;;1.35;0.63;;;24.10;59.70;;;;;;4139118;28;20045;-78
2022/02/05 10:32:51;;;;;;;2.38;0.75;;;24.10;59.80;;;;;;4153127;28;20059;-73
2022/02/05 10:35:23;;;;;;;3.05;0.70;;;24.00;59.80;;;;;;4148479;28;20689;-73
2022/02/05 10:38:29;;;;;;;2.92;1.00;;;24.10;59.80;;;;;;4152999;28;20051;-75
2022/02/05 10:42:49;;;;;;;2.22;0.82;;;24.00;59.40;;;;;;4152485;28;20211;-74
2022/02/05 10:43:35;;;;;;;1.90;0.60;;;24.00;59.70;;;;;;4147968;28;20137;-72
2022/02/05 10:46:01;;;;;;;3.40;0.90;;;24.00;59.80;;;;;;4148827;28;20060;-74
2022/02/05 10:48:25;;;;;;;1.08;0.73;;;24.00;59.80;;;;;;4149947;28;20041;-75
2022/02/05 10:50:50;;;;;;;2.88;0.68;;;24.00;59.80;;;;;;4145579;28;20160;-75
2022/02/05 10:53:34;;;;;;;2.50;0.75;;;24.00;59.80;;;;;;4149339;28;20037;-76
2022/02/05 11:06:54;;;;;;;1.83;0.80;;;24.00;59.80;;;;;;4154249;28;20045;-75
2022/02/05 11:09:18;;;;;;;2.47;0.82;;;24.00;59.90;;;;;;4147705;28;20041;-74
2022/02/05 11:19:41;;;;;;;3.38;1.02;;;23.90;59.90;;;;;;4154091;28;20053;-75
2022/02/05 11:22:04;;;;;;;2.92;0.82;;;23.90;59.90;;;;;;4159161;28;20050;-73
2022/02/05 11:24:30;;;;;;;2.40;0.80;;;23.90;59.90;;;;;;4149732;28;20403;-75
2022/02/05 11:26:53;;;;;;;3.50;0.60;;;23.90;60.00;;;;;;4157110;28;20073;-72
2022/02/05 11:29:31;;;;;;;4.57;1.13;;;23.90;60.00;;;;;;4154195;28;20703;-75
2022/02/05 11:31:55;;;;;;;2.33;0.77;;;23.90;60.00;;;;;;4154615;28;20644;-75
2022/02/05 11:34:38;;;;;;;3.90;1.00;;;23.90;59.90;;;;;;4155240;28;20038;-78
2022/02/05 11:37:06;;;;;;;1.88;0.65;;;23.90;59.90;;;;;;4158163;28;20065;-75
2022/02/05 11:39:42;;;;;;;1.92;0.90;;;23.90;60.00;;;;;;4150514;28;20053;-74
2022/02/05 11:42:24;;;;;;;2.72;0.93;;;23.90;59.90;;;;;;4154136;28;20034;-76
2022/02/05 11:44:47;;;;;;;2.53;0.75;;;23.90;60.10;;;;;;4147363;28;20403;-75
2022/02/05 11:47:10;;;;;;;3.50;1.10;;;23.90;60.00;;;;;;4157169;28;20046;-73
2022/02/05 11:49:55;;;;;;;2.17;0.93;;;23.80;59.90;;;;;;4149882;28;20049;-74
2022/02/05 11:52:36;;;;;;;2.50;0.85;;;23.80;60.00;;;;;;4146228;28;20058;-75
2022/02/05 11:55:24;;;;;;;4.03;1.10;;;23.90;60.10;;;;;;4151344;28;20146;-76
2022/02/05 11:57:47;;;;;;;3.17;0.93;;;23.80;60.70;;;;;;4155870;28;20138;-73
2022/02/05 12:00:22;;;;;;;3.10;1.25;;;23.80;60.00;;;;;;4152271;28;20060;-74
2022/02/05 12:02:54;;;;;;;2.80;0.90;;;23.80;60.00;;;;;;4151489;28;20045;-72
2022/02/05 12:05:20;;;;;;;3.47;0.88;;;23.80;60.00;;;;;;4154700;28;20483;-74
2022/02/05 12:08:06;;;;;;;6.95;1.45;;;23.80;60.10;;;;;;4154773;28;20030;-76
2022/02/05 12:10:40;;;;;;;3.00;0.90;;;23.80;60.10;;;;;;4150047;28;20080;-74
2022/02/05 12:13:19;;;;;;;2.25;0.73;;;23.80;60.00;;;;;;4148422;28;20144;-76
2022/02/05 12:15:43;;;;;;;1.80;0.73;;;23.80;60.10;;;;;;4149625;28;20513;-74
2022/02/05 12:20:32;;;;;;;3.28;1.15;;;23.80;60.70;;;;;;4148206;28;20040;-74
2022/02/05 12:23:03;;;;;;;2.08;0.85;;;23.80;60.20;;;;;;4151733;28;20113;-74
2022/02/05 12:25:25;;;;;;;2.40;0.90;;;23.80;60.80;;;;;;4150815;28;20054;-75
2022/02/05 12:27:48;;;;;;;2.53;0.95;;;23.80;60.10;;;;;;4143609;28;20048;-74
2022/02/05 12:30:38;;;;;;;2.90;0.93;;;23.80;60.10;;;;;;4152961;28;20128;-74
2022/02/05 12:33:01;;;;;;;3.28;0.98;;;23.80;60.20;;;;;;4150983;28;20033;-74
2022/02/05 12:35:24;;;;;;;2.00;0.67;;;23.80;60.10;;;;;;4157380;28;20468;-75
2022/02/05 12:37:46;;;;;;;2.53;1.00;;;23.80;60.10;;;;;;4157082;28;20116;-75
2022/02/05 12:40:09;;;;;;;2.05;0.82;;;23.70;60.10;;;;;;4144223;28;20130;-73
2022/02/05 12:42:32;;;;;;;3.42;0.88;;;23.70;60.10;;;;;;4157839;28;20052;-76
2022/02/05 12:44:55;;;;;;;2.80;0.85;;;23.70;60.00;;;;;;4150343;28;20152;-75
2022/02/05 12:47:26;;;;;;;2.78;0.70;;;23.70;60.00;;;;;;4156685;28;20503;-75
2022/02/05 12:49:56;;;;;;;2.47;0.80;;;23.70;60.10;;;;;;4150532;28;20537;-73
2022/02/05 12:52:32;;;;;;;2.83;1.15;;;23.70;60.00;;;;;;4156278;28;20041;-74
2022/02/05 12:55:00;;;;;;;2.30;0.85;;;23.70;60.00;;;;;;4157838;28;20455;-74
2022/02/05 12:57:23;;;;;;;3.25;0.80;;;23.70;60.00;;;;;;4150283;28;20049;-73
2022/02/05 12:59:46;;;;;;;1.98;0.80;;;23.70;60.00;;;;;;4153433;28;20566;-75
2022/02/05 13:02:10;;;;;;;;;;;23.70;60.00;;;;;;4156492;28;20459;-74
2022/02/05 13:04:35;;;;;;;2.10;0.93;;;23.70;60.50;;;;;;4153604;28;19909;-75
2022/02/05 13:07:15;;;;;;;2.30;0.90;;;23.60;60.00;;;;;;4141778;28;20046;-73
2022/02/05 13:09:55;;;;;;;2.88;0.90;;;23.60;59.90;;;;;;4151368;28;20041;-73
2022/02/05 13:12:26;;;;;;;2.40;1.00;;;23.60;59.90;;;;;;4164180;28;20054;-75
2022/02/05 13:15:01;;;;;;;2.08;0.82;;;23.60;60.00;;;;;;4150265;28;20085;-76
2022/02/05 13:36:29;;;;;;;2.85;0.95;;;23.60;60.10;;;;;;4149679;28;20435;-75
2022/02/05 13:41:37;;;;;;;2.28;0.82;;;23.60;60.00;;;;;;4153490;28;20048;-74
2022/02/05 13:44:00;;;;;;;3.03;1.05;;;23.60;60.10;;;;;;4139998;28;20041;-73
2022/02/05 13:46:22;;;;;;;2.70;0.80;;;23.50;60.00;;;;;;4154242;28;20038;-74
2022/02/05 13:48:45;;;;;;;1.92;0.77;;;23.50;60.00;;;;;;4157420;28;20116;-74
2022/02/05 13:51:09;;;;;;;4.28;0.93;;;23.50;60.70;;;;;;4153811;28;20112;-74
2022/02/05 13:53:32;;;;;;;2.20;0.80;;;23.50;60.00;;;;;;4157231;28;20743;-74
2022/02/05 13:55:54;;;;;;;1.42;0.68;;;23.50;60.10;;;;;;4136640;28;20098;-75
2022/02/05 13:58:16;;;;;;;2.95;1.08;;;23.50;60.10;;;;;;4158552;28;20121;-75
2022/02/05 14:00:44;;;;;;;2.40;0.88;;;23.50;60.10;;;;;;4156570;28;20202;-75
2022/02/05 14:03:08;;;;;;;3.88;1.35;;;23.50;60.10;;;;;;4151373;28;20037;-75
2022/02/05 14:05:31;;;;;;;2.75;1.20;;;23.50;60.10;;;;;;4138479;28;20041;-75
2022/02/05 14:07:54;;;;;;;2.92;1.25;;;23.50;60.20;;;;;;4155237;28;20040;-74
2022/02/05 14:10:19;;;;;;;2.42;0.90;;;23.50;60.20;;;;;;4155245;28;20076;-73
2022/02/05 14:12:55;;;;;;;2.55;0.80;;;23.50;60.10;;;;;;4161511;28;20045;-73
2022/02/05 14:15:17;;;;;;;2.03;1.08;;;23.50;60.30;;;;;;4146973;28;20034;-74
2022/02/05 14:17:40;;;;;;;4.15;1.10;;;23.50;60.20;;;;;;4155944;28;20131;-73
2022/02/05 14:20:11;;;;;;;1.55;0.65;;;23.50;60.20;;;;;;4147613;28;20554;-73
2022/02/05 14:22:37;;;;;;;2.42;0.85;;;23.50;60.20;;;;;;4152818;28;20072;-74
2022/02/05 14:25:16;;;;;;;3.10;0.98;;;23.40;60.20;;;;;;4155027;28;20142;-74
2022/02/05 14:27:42;;;;;;;3.80;1.20;;;23.40;60.10;;;;;;4155828;28;20112;-74
2022/02/05 14:30:12;;;;;;;2.58;0.90;;;23.40;60.20;;;;;;4149681;28;20144;-74
2022/02/05 14:42:39;;;;;;;3.70;1.50;;;23.40;60.20;;;;;;4145541;28;20037;-76
2022/02/05 14:45:03;;;;;;;1.52;0.80;;;23.40;60.20;;;;;;4147268;28;20588;-73
2022/02/05 14:47:25;;;;;;;4.40;1.27;;;23.40;60.30;;;;;;4159293;28;20099;-73
2022/02/05 14:49:48;;;;;;;3.20;1.00;;;23.30;60.20;;;;;;4157889;28;20042;-74
2022/02/05 14:52:14;;;;;;;2.15;0.85;;;23.30;60.20;;;;;;4152426;28;20049;-74
2022/02/05 14:54:37;;;;;;;3.08;1.35;;;23.30;60.20;;;;;;4151657;28;20089;-72
2022/02/05 14:57:00;;;;;;;1.73;0.75;;;23.30;60.30;;;;;;4149639;28;20536;-74
2022/02/05 14:59:23;;;;;;;2.92;1.23;;;23.30;60.30;;;;;;4151688;28;20697;-74
2022/02/05 15:01:45;;;;;;;1.98;0.93;;;23.30;60.80;;;;;;4154987;28;20060;-75
2022/02/05 15:04:08;;;;;;;1.55;0.60;;;23.30;60.30;;;;;;4141737;28;20125;-73
2022/02/05 15:06:32;;;;;;;3.28;1.10;;;23.30;60.30;;;;;;4153725;28;20040;-72
2022/02/05 15:08:59;;;;;;;3.85;1.15;;;23.30;60.30;;;;;;4150424;28;20081;-65
2022/02/05 15:11:23;;;;;;;5.70;1.35;;;23.30;60.20;;;;;;4158034;28;20083;-66
2022/02/05 15:13:46;;;;;;;2.80;0.98;;;23.30;60.20;;;;;;4142688;28;20038;-66
2022/02/05 15:16:10;;;;;;;4.25;1.50;;;23.30;60.30;;;;;;4155663;28;20080;-66
2022/02/05 15:18:33;;;;;;;2.22;0.65;;;23.30;60.30;;;;;;4152377;28;20048;-66
2022/02/05 15:20:55;;;;;;;2.85;1.13;;;23.30;60.30;;;;;;4143203;28;20451;-66
2022/02/05 15:23:19;;;;;;;2.95;0.90;;;23.30;60.30;;;;;;4154068;28;20033;-67
2022/02/05 15:25:42;;;;;;;1.88;0.85;;;23.20;60.30;;;;;;4157616;28;20044;-67
2022/02/05 15:28:04;;;;;;;3.15;1.00;;;23.20;60.30;;;;;;4155036;28;20595;-67
2022/02/05 15:30:30;;;;;;;2.67;1.25;;;23.20;60.20;;;;;;4157541;28;20131;-66
2022/02/05 15:32:52;;;;;;;2.22;0.90;;;23.20;60.30;;;;;;4154501;28;20475;-66
2022/02/05 15:35:14;;;;;;;3.05;1.20;;;23.20;60.30;;;;;;4157408;28;20566;-66
2022/02/05 15:37:40;;;;;;;2.35;1.08;;;23.20;60.30;;;;;;4150212;28;20523;-67
2022/02/05 15:45:06;;;;;;;3.10;1.08;;;23.20;60.30;;;;;;4155199;28;20049;-66